createdAt,value
2022-12-25T00:00:04.360Z,11.10
2022-12-25T00:02:34.527Z,11.10
2022-12-25T00:05:02.922Z,11.10
2022-12-25T00:07:31.367Z,11.10
2022-12-25T00:09:59.655Z,11.10
2022-12-25T00:12:27.842Z,11.00
2022-12-25T00:14:56.114Z,11.00
2022-12-25T00:17:24.414Z,11.10
2022-12-25T00:19:54.076Z,11.00
2022-12-25T00:22:22.356Z,10.90
2022-12-25T00:24:50.874Z,11.00
2022-12-25T00:27:19.369Z,11.10
2022-12-25T00:29:47.949Z,11.20
2022-12-25T00:32:16.164Z,11.10
2022-12-25T00:34:44.412Z,11.20
2022-12-25T00:37:14.138Z,11.10
2022-12-25T00:39:42.437Z,11.10
2022-12-25T00:42:20.269Z,11.00
2022-12-25T00:44:49.048Z,10.90
2022-12-25T00:47:18.148Z,11.00
2022-12-25T00:49:46.581Z,11.00
2022-12-25T00:52:16.539Z,11.00
2022-12-25T00:54:44.712Z,10.90
2022-12-25T00:57:13.055Z,11.00
2022-12-25T00:59:41.340Z,10.90
2022-12-25T01:02:24.577Z,10.70
2022-12-25T01:04:54.763Z,10.70
2022-12-25T01:07:26.630Z,10.70
2022-12-25T01:10:12.129Z,10.80
2022-12-25T01:12:42.875Z,10.80
2022-12-25T01:15:12.925Z,10.90
2022-12-25T01:17:41.924Z,10.90
2022-12-25T01:20:10.444Z,10.90
2022-12-25T01:22:40.172Z,10.80
2022-12-25T01:25:10.717Z,10.80
2022-12-25T01:27:39.094Z,10.80
2022-12-25T01:30:08.639Z,10.70
2022-12-25T01:32:36.817Z,10.70
2022-12-25T01:35:05.590Z,10.70
2022-12-25T01:37:33.785Z,10.70
2022-12-25T01:40:03.298Z,10.70
2022-12-25T01:42:31.515Z,10.60
2022-12-25T01:45:34.921Z,10.60
2022-12-25T01:48:06.733Z,10.70
2022-12-25T01:50:37.348Z,10.80
2022-12-25T01:53:07.004Z,10.70
2022-12-25T01:55:38.635Z,10.70
2022-12-25T01:58:07.187Z,10.80
2022-12-25T02:00:35.680Z,10.80
2022-12-25T02:03:05.020Z,10.80
2022-12-25T02:05:35.576Z,10.90
2022-12-25T02:08:08.765Z,11.00
2022-12-25T02:10:39.885Z,10.90
2022-12-25T02:13:09.035Z,11.00
2022-12-25T02:15:46.965Z,11.10
2022-12-25T02:18:22.397Z,11.10
2022-12-25T02:21:18.589Z,10.80
2022-12-25T02:24:14.415Z,10.50
2022-12-25T02:26:58.163Z,10.50
2022-12-25T02:29:34.698Z,10.10
2022-12-25T02:32:08.925Z,10.30
2022-12-25T02:34:44.164Z,10.50
2022-12-25T02:37:17.385Z,10.20
2022-12-25T02:39:57.905Z,10.30
2022-12-25T02:43:01.622Z,10.20
2022-12-25T02:45:53.724Z,10.00
2022-12-25T02:48:43.301Z,10.00
2022-12-25T02:51:32.858Z,10.40
2022-12-25T02:54:22.437Z,10.60
2022-12-25T02:57:09.528Z,10.80
2022-12-25T02:59:57.892Z,10.50
2022-12-25T03:02:47.011Z,10.40
2022-12-25T03:05:36.585Z,10.50
2022-12-25T03:08:10.010Z,10.70
2022-12-25T03:11:02.701Z,10.70
2022-12-25T03:13:35.592Z,10.30
2022-12-25T03:16:21.669Z,10.60
2022-12-25T03:18:51.584Z,10.60
2022-12-25T03:21:37.179Z,10.70
2022-12-25T03:24:35.113Z,10.80
2022-12-25T03:27:03.452Z,10.90
2022-12-25T03:29:52.057Z,10.40
2022-12-25T03:32:27.875Z,10.60
2022-12-25T03:35:22.130Z,10.80
2022-12-25T03:38:14.363Z,10.90
2022-12-25T03:41:10.574Z,10.90
2022-12-25T03:44:03.072Z,10.60
2022-12-25T03:46:53.629Z,10.50
2022-12-25T03:49:44.073Z,10.70
2022-12-25T03:52:34.407Z,10.50
2022-12-25T03:55:26.488Z,10.60
2022-12-25T03:58:12.091Z,10.30
2022-12-25T04:00:57.600Z,10.40
2022-12-25T04:03:43.220Z,10.30
2022-12-25T04:06:28.681Z,9.70
2022-12-25T04:09:15.563Z,9.40
2022-12-25T04:12:03.006Z,9.20
2022-12-25T04:14:48.853Z,9.10
2022-12-25T04:17:34.541Z,9.10
2022-12-25T04:20:20.041Z,9.20
2022-12-25T04:23:05.662Z,9.10
2022-12-25T04:25:52.617Z,9.10
2022-12-25T04:28:38.310Z,9.10
2022-12-25T04:31:25.101Z,9.00
2022-12-25T04:34:09.844Z,9.00
2022-12-25T04:36:38.257Z,9.20
2022-12-25T04:39:06.486Z,9.50
2022-12-25T04:41:36.060Z,9.50
2022-12-25T04:44:04.586Z,9.60
2022-12-25T04:46:32.844Z,9.50
2022-12-25T04:49:00.966Z,9.70
2022-12-25T04:51:29.081Z,10.00
2022-12-25T04:53:57.490Z,10.20
2022-12-25T04:56:25.714Z,10.40
2022-12-25T04:58:55.255Z,10.50
2022-12-25T05:01:23.697Z,10.50
2022-12-25T05:03:52.148Z,10.30
2022-12-25T05:06:20.516Z,10.40
2022-12-25T05:08:48.691Z,10.30
2022-12-25T05:11:18.060Z,10.30
2022-12-25T05:13:46.332Z,10.20
2022-12-25T05:16:18.258Z,10.40
2022-12-25T05:18:47.031Z,10.30
2022-12-25T05:21:15.414Z,10.40
2022-12-25T05:23:48.527Z,10.50
2022-12-25T05:26:18.357Z,10.60
2022-12-25T05:28:46.807Z,10.60
2022-12-25T05:31:17.215Z,10.70
2022-12-25T05:33:45.448Z,10.70
2022-12-25T05:36:14.410Z,10.60
2022-12-25T05:38:42.596Z,10.50
2022-12-25T05:41:10.917Z,10.40
2022-12-25T05:43:39.077Z,10.10
2022-12-25T05:46:08.642Z,10.00
2022-12-25T05:48:40.052Z,10.00
2022-12-25T05:51:10.343Z,9.70
2022-12-25T05:53:38.943Z,9.90
2022-12-25T05:56:08.932Z,10.10
2022-12-25T05:58:39.048Z,10.30
2022-12-25T06:01:12.928Z,10.30
2022-12-25T06:03:42.942Z,10.40
2022-12-25T06:06:12.220Z,9.90
2022-12-25T06:08:40.582Z,10.10
2022-12-25T06:11:10.308Z,10.20
2022-12-25T06:13:38.742Z,10.40
2022-12-25T06:16:08.284Z,10.50
2022-12-25T06:18:37.276Z,10.60
2022-12-25T06:21:09.775Z,10.60
2022-12-25T06:23:38.439Z,10.40
2022-12-25T06:26:07.660Z,10.50
2022-12-25T06:28:36.182Z,10.40
2022-12-25T06:31:07.907Z,10.40
2022-12-25T06:33:36.449Z,10.30
2022-12-25T06:36:12.191Z,10.30
2022-12-25T06:38:40.541Z,10.30
2022-12-25T06:41:10.886Z,10.10
2022-12-25T06:43:39.676Z,10.00
2022-12-25T06:46:09.871Z,10.00
2022-12-25T06:48:40.293Z,10.00
2022-12-25T06:51:09.957Z,10.00
2022-12-25T06:53:39.862Z,10.00
2022-12-25T06:56:15.436Z,10.10
2022-12-25T06:58:45.162Z,10.20
2022-12-25T07:01:19.960Z,10.30
2022-12-25T07:03:49.802Z,10.50
2022-12-25T07:06:19.922Z,10.50
2022-12-25T07:08:48.192Z,10.40
2022-12-25T07:11:16.590Z,10.40
2022-12-25T07:13:44.994Z,10.50
2022-12-25T07:16:14.247Z,10.50
2022-12-25T07:18:43.178Z,10.50
2022-12-25T07:21:13.932Z,10.50
2022-12-25T07:23:44.525Z,10.50
2022-12-25T07:26:13.787Z,10.70
2022-12-25T07:28:42.577Z,10.70
2022-12-25T07:31:13.530Z,10.70
2022-12-25T07:33:42.218Z,10.70
2022-12-25T07:36:12.984Z,10.70
2022-12-25T07:38:43.718Z,10.70
2022-12-25T07:41:13.437Z,10.60
2022-12-25T07:43:42.097Z,10.60
2022-12-25T07:46:10.783Z,10.60
2022-12-25T07:48:39.108Z,10.60
2022-12-25T07:51:11.317Z,10.60
2022-12-25T07:53:39.918Z,10.60
2022-12-25T07:56:12.666Z,10.50
2022-12-25T07:58:41.001Z,10.50
2022-12-25T08:01:12.887Z,10.60
2022-12-25T08:03:41.277Z,10.50
2022-12-25T08:06:11.835Z,10.60
2022-12-25T08:08:42.162Z,10.60
2022-12-25T08:11:12.171Z,10.60
2022-12-25T08:13:40.658Z,10.60
2022-12-25T08:16:11.291Z,10.60
2022-12-25T08:18:40.417Z,10.60
2022-12-25T08:21:11.218Z,10.60
2022-12-25T08:23:41.195Z,10.70
2022-12-25T08:26:12.598Z,10.70
2022-12-25T08:28:40.785Z,10.70
2022-12-25T08:31:11.819Z,10.70
2022-12-25T08:33:40.445Z,10.70
2022-12-25T08:36:11.001Z,10.80
2022-12-25T08:38:40.138Z,10.70
2022-12-25T08:41:09.165Z,10.80
2022-12-25T08:43:39.037Z,10.90
2022-12-25T08:46:07.524Z,10.90
2022-12-25T08:48:36.598Z,10.80
2022-12-25T08:51:05.849Z,10.90
2022-12-25T08:53:34.121Z,10.90
2022-12-25T08:56:04.595Z,10.70
2022-12-25T08:58:33.518Z,10.70
2022-12-25T09:01:03.379Z,10.70
2022-12-25T09:03:33.612Z,10.80
2022-12-25T09:06:04.753Z,10.80
2022-12-25T09:08:33.284Z,10.90
2022-12-25T09:11:04.154Z,10.90
2022-12-25T09:13:32.607Z,10.90
2022-12-25T09:16:06.044Z,11.00
2022-12-25T09:18:34.484Z,11.00
2022-12-25T09:21:03.965Z,11.00
2022-12-25T09:23:32.913Z,11.10
2022-12-25T09:26:01.194Z,11.10
2022-12-25T09:28:29.436Z,11.10
2022-12-25T09:30:57.775Z,11.20
2022-12-25T09:33:27.599Z,11.20
2022-12-25T09:35:56.845Z,11.20
2022-12-25T09:38:25.592Z,11.30
2022-12-25T09:41:00.477Z,11.30
2022-12-25T09:43:31.770Z,11.30
2022-12-25T09:46:02.009Z,11.40
2022-12-25T09:48:34.927Z,11.40
2022-12-25T09:51:07.635Z,11.40
2022-12-25T09:53:39.993Z,11.40
2022-12-25T09:56:12.586Z,11.40
2022-12-25T09:58:41.193Z,11.50
2022-12-25T10:01:17.659Z,11.40
2022-12-25T10:04:10.848Z,11.50
2022-12-25T10:06:46.616Z,11.50
2022-12-25T10:09:35.517Z,11.50
2022-12-25T10:12:17.035Z,11.50
2022-12-25T10:15:08.311Z,11.50
2022-12-25T10:17:48.642Z,11.40
2022-12-25T10:20:24.731Z,11.20
2022-12-25T10:22:58.186Z,11.20
2022-12-25T10:25:27.598Z,11.20
2022-12-25T10:27:59.662Z,11.20
2022-12-25T10:30:29.550Z,11.20
2022-12-25T10:32:59.365Z,11.30
2022-12-25T10:35:31.531Z,11.30
2022-12-25T10:38:02.731Z,11.30
2022-12-25T10:40:38.250Z,11.50
2022-12-25T10:43:12.394Z,11.60
2022-12-25T10:45:48.987Z,11.60
2022-12-25T10:48:22.774Z,11.60
2022-12-25T10:50:53.248Z,11.60
2022-12-25T10:53:24.040Z,11.70
2022-12-25T10:55:57.300Z,11.60
2022-12-25T10:58:25.773Z,11.60
2022-12-25T11:00:56.021Z,11.50
2022-12-25T11:03:27.146Z,11.50
2022-12-25T11:05:57.344Z,11.60
2022-12-25T11:08:28.641Z,11.60
2022-12-25T11:10:59.326Z,11.60
2022-12-25T11:13:30.278Z,11.70
2022-12-25T11:16:09.548Z,11.80
2022-12-25T11:18:47.741Z,11.80
2022-12-25T11:21:19.743Z,11.80
2022-12-25T11:23:50.571Z,11.80
2022-12-25T11:26:19.796Z,11.90
2022-12-25T11:28:51.853Z,12.00
2022-12-25T11:31:22.403Z,12.10
2022-12-25T11:33:56.358Z,12.10
2022-12-25T11:36:32.975Z,11.90
2022-12-25T11:39:06.807Z,11.90
2022-12-25T11:41:37.531Z,11.90
2022-12-25T11:44:14.231Z,11.80
2022-12-25T11:46:46.974Z,11.70
2022-12-25T11:49:20.026Z,11.90
2022-12-25T11:51:54.420Z,12.00
2022-12-25T11:54:29.022Z,12.30
2022-12-25T11:57:00.636Z,12.30
2022-12-25T11:59:33.334Z,12.40
2022-12-25T12:02:05.265Z,12.30
2022-12-25T12:04:42.930Z,12.40
2022-12-25T12:07:22.625Z,12.60
2022-12-25T12:09:58.777Z,12.80
2022-12-25T12:12:34.759Z,13.00
2022-12-25T12:15:09.796Z,13.20
2022-12-25T12:17:38.026Z,13.30
2022-12-25T12:20:13.936Z,13.30
2022-12-25T12:22:51.372Z,13.30
2022-12-25T12:25:20.583Z,13.50
2022-12-25T12:27:59.779Z,13.70
2022-12-25T12:30:34.756Z,13.90
2022-12-25T12:33:06.690Z,13.80
2022-12-25T12:35:38.180Z,13.70
2022-12-25T12:38:12.152Z,13.70
2022-12-25T12:40:43.175Z,13.70
2022-12-25T12:43:29.838Z,13.90
2022-12-25T12:46:02.442Z,14.00
2022-12-25T12:48:38.155Z,13.90
2022-12-25T12:51:07.768Z,13.80
2022-12-25T12:53:39.263Z,13.80
2022-12-25T12:56:16.439Z,13.50
2022-12-25T12:58:50.016Z,13.50
2022-12-25T13:01:36.742Z,13.50
2022-12-25T13:04:32.448Z,13.70
2022-12-25T13:07:11.279Z,13.80
2022-12-25T13:09:54.786Z,13.90
2022-12-25T13:12:24.578Z,14.10
2022-12-25T13:14:53.045Z,14.00
2022-12-25T13:17:24.805Z,14.00
2022-12-25T13:19:57.592Z,14.10
2022-12-25T13:22:32.176Z,14.20
2022-12-25T13:25:05.006Z,14.30
2022-12-25T13:27:34.811Z,14.40
2022-12-25T13:30:13.716Z,14.40
2022-12-25T13:32:42.060Z,14.40
2022-12-25T13:35:15.506Z,14.10
2022-12-25T13:37:44.505Z,14.20
2022-12-25T13:40:23.305Z,14.20
2022-12-25T13:42:58.859Z,14.00
2022-12-25T13:45:29.297Z,14.10
2022-12-25T13:47:57.718Z,14.00
2022-12-25T13:50:27.952Z,14.10
2022-12-25T13:52:57.936Z,14.10
2022-12-25T13:55:29.266Z,14.10
2022-12-25T13:57:59.268Z,14.10
2022-12-25T14:00:33.618Z,14.20
2022-12-25T14:03:02.276Z,14.10
2022-12-25T14:05:39.713Z,13.90
2022-12-25T14:08:16.604Z,14.00
2022-12-25T14:10:49.499Z,14.10
2022-12-25T14:13:21.026Z,14.20
2022-12-25T14:15:51.074Z,14.20
2022-12-25T14:18:21.660Z,14.20
2022-12-25T14:21:00.271Z,14.10
2022-12-25T14:23:32.308Z,14.10
2022-12-25T14:26:02.037Z,14.20
2022-12-25T14:28:34.554Z,14.10
2022-12-25T14:31:04.985Z,14.00
2022-12-25T14:33:37.728Z,14.10
2022-12-25T14:36:07.497Z,14.00
2022-12-25T14:38:37.753Z,13.90
2022-12-25T14:41:24.340Z,13.90
2022-12-25T14:43:55.528Z,13.80
2022-12-25T14:46:26.186Z,13.80
2022-12-25T14:49:00.853Z,13.90
2022-12-25T14:51:31.065Z,13.90
2022-12-25T14:54:01.939Z,13.90
2022-12-25T14:56:38.007Z,13.80
2022-12-25T14:59:07.706Z,13.80
2022-12-25T15:01:39.705Z,13.70
2022-12-25T15:04:14.459Z,13.70
2022-12-25T15:06:53.684Z,13.70
2022-12-25T15:09:22.394Z,13.80
2022-12-25T15:11:53.100Z,13.80
2022-12-25T15:14:21.359Z,13.90
2022-12-25T15:16:51.322Z,13.90
2022-12-25T15:19:25.928Z,13.80
2022-12-25T15:21:55.748Z,13.80
2022-12-25T15:24:24.033Z,13.90
2022-12-25T15:26:55.646Z,13.90
2022-12-25T15:29:45.042Z,13.90
2022-12-25T15:32:17.443Z,13.90
2022-12-25T15:34:50.003Z,13.90
2022-12-25T15:37:19.195Z,13.90
2022-12-25T15:39:48.168Z,13.90
2022-12-25T15:42:19.745Z,13.90
2022-12-25T15:44:48.176Z,13.90
2022-12-25T15:47:20.170Z,13.90
2022-12-25T15:49:49.080Z,13.90
2022-12-25T15:52:19.182Z,13.80
2022-12-25T15:54:47.345Z,13.80
2022-12-25T15:57:20.600Z,13.70
2022-12-25T15:59:48.745Z,13.70
2022-12-25T16:02:19.602Z,13.80
2022-12-25T16:04:48.987Z,13.80
2022-12-25T16:07:19.092Z,13.80
2022-12-25T16:09:47.866Z,13.90
2022-12-25T16:12:17.660Z,13.90
2022-12-25T16:14:45.932Z,13.90
2022-12-25T16:17:15.662Z,13.90
2022-12-25T16:19:44.924Z,14.00
2022-12-25T16:22:14.135Z,14.00
2022-12-25T16:24:42.388Z,14.10
2022-12-25T16:27:10.654Z,14.10
2022-12-25T16:29:42.091Z,14.10
2022-12-25T16:32:10.720Z,14.20
2022-12-25T16:34:39.916Z,14.20
2022-12-25T16:37:09.454Z,14.20
2022-12-25T16:39:38.587Z,14.10
2022-12-25T16:42:06.829Z,14.20
2022-12-25T16:44:38.081Z,14.20
2022-12-25T16:47:07.916Z,14.30
2022-12-25T16:49:36.746Z,14.30
2022-12-25T16:52:05.469Z,14.30
2022-12-25T16:54:33.751Z,14.30
2022-12-25T16:57:02.341Z,14.20
2022-12-25T16:59:30.941Z,14.30
2022-12-25T17:01:59.293Z,14.30
2022-12-25T17:04:30.418Z,14.30
2022-12-25T17:06:58.999Z,14.30
2022-12-25T17:09:27.256Z,14.30
2022-12-25T17:11:56.596Z,14.30
2022-12-25T17:14:25.811Z,14.30
2022-12-25T17:16:54.246Z,14.30
2022-12-25T17:19:24.795Z,14.30
2022-12-25T17:21:55.736Z,14.30
2022-12-25T17:24:24.008Z,14.30
2022-12-25T17:26:52.211Z,14.30
2022-12-25T17:29:22.763Z,14.30
2022-12-25T17:31:51.853Z,14.30
2022-12-25T17:34:20.477Z,14.20
2022-12-25T17:36:48.871Z,14.30
2022-12-25T17:39:19.096Z,14.20
2022-12-25T17:41:47.478Z,14.20
2022-12-25T17:44:15.713Z,14.30
2022-12-25T17:46:43.931Z,14.20
2022-12-25T17:49:17.898Z,14.30
2022-12-25T17:51:46.961Z,14.30
2022-12-25T17:54:15.608Z,14.30
2022-12-25T17:56:45.496Z,14.20
2022-12-25T17:59:18.504Z,14.30
2022-12-25T18:01:48.338Z,14.30
2022-12-25T18:04:17.373Z,14.40
2022-12-25T18:06:45.646Z,14.40
2022-12-25T18:09:14.210Z,14.40
2022-12-25T18:11:45.343Z,14.50
2022-12-25T18:14:15.638Z,14.30
2022-12-25T18:16:45.732Z,14.30
2022-12-25T18:19:15.794Z,14.30
2022-12-25T18:21:43.961Z,14.30
2022-12-25T18:24:12.785Z,14.40
2022-12-25T18:26:40.998Z,14.30
2022-12-25T18:29:10.937Z,14.20
2022-12-25T18:31:39.365Z,14.20
2022-12-25T18:34:07.604Z,14.30
2022-12-25T18:36:36.967Z,14.30
2022-12-25T18:39:05.641Z,14.40
2022-12-25T18:41:53.812Z,14.40
2022-12-25T18:44:23.555Z,14.40
2022-12-25T18:46:51.820Z,14.40
2022-12-25T18:49:19.990Z,14.30
2022-12-25T18:51:50.923Z,14.30
2022-12-25T18:54:19.451Z,14.30
2022-12-25T18:56:53.420Z,14.30
2022-12-25T18:59:23.873Z,14.20
2022-12-25T19:01:52.266Z,14.20
2022-12-25T19:04:20.582Z,14.20
2022-12-25T19:06:50.433Z,14.20
2022-12-25T19:09:18.706Z,14.20
2022-12-25T19:11:47.100Z,14.30
2022-12-25T19:14:15.832Z,14.20
2022-12-25T19:16:45.881Z,14.20
2022-12-25T19:19:14.318Z,14.30
2022-12-25T19:21:42.645Z,14.20
2022-12-25T19:24:10.992Z,14.20
2022-12-25T19:26:39.323Z,14.20
2022-12-25T19:29:07.619Z,14.20
2022-12-25T19:31:37.179Z,14.20
2022-12-25T19:34:07.757Z,14.20
2022-12-25T19:36:36.035Z,14.30
2022-12-25T19:39:04.480Z,14.30
2022-12-25T19:41:33.203Z,14.20
2022-12-25T19:44:01.676Z,14.20
2022-12-25T19:46:32.459Z,14.20
2022-12-25T19:49:04.564Z,14.20
2022-12-25T19:51:37.398Z,14.10
2022-12-25T19:54:06.663Z,14.20
2022-12-25T19:56:35.587Z,14.20
2022-12-25T19:59:04.165Z,14.20
2022-12-25T20:01:33.455Z,14.20
2022-12-25T20:04:03.355Z,14.10
2022-12-25T20:06:34.480Z,14.00
2022-12-25T20:09:05.223Z,14.00
2022-12-25T20:11:34.651Z,14.00
2022-12-25T20:14:03.242Z,14.00
2022-12-25T20:16:31.537Z,14.00
2022-12-25T20:19:00.136Z,14.00
2022-12-25T20:21:29.986Z,14.00
2022-12-25T20:24:00.303Z,14.00
2022-12-25T20:26:31.159Z,14.10
2022-12-25T20:29:00.218Z,14.10
2022-12-25T20:31:32.058Z,14.10
2022-12-25T20:34:05.069Z,14.10
2022-12-25T20:36:37.119Z,14.10
2022-12-25T20:39:10.167Z,14.20
2022-12-25T20:41:39.679Z,14.10
2022-12-25T20:44:10.475Z,14.20
2022-12-25T20:46:38.879Z,14.10
2022-12-25T20:49:07.518Z,14.10
2022-12-25T20:51:35.904Z,14.10
2022-12-25T20:54:09.430Z,14.00
2022-12-25T20:56:38.827Z,13.80
2022-12-25T20:59:07.077Z,13.90
2022-12-25T21:01:35.770Z,13.80
2022-12-25T21:04:04.107Z,13.90
2022-12-25T21:06:32.457Z,14.00
2022-12-25T21:09:01.043Z,13.80
2022-12-25T21:11:31.425Z,13.70
2022-12-25T21:13:59.738Z,13.70
2022-12-25T21:16:28.715Z,13.80
2022-12-25T21:18:57.008Z,13.90
2022-12-25T21:21:25.264Z,13.80
2022-12-25T21:23:55.584Z,13.70
2022-12-25T21:26:25.827Z,13.70
2022-12-25T21:28:57.826Z,13.80
2022-12-25T21:31:26.506Z,13.80
2022-12-25T21:33:55.325Z,13.90
2022-12-25T21:36:27.210Z,13.90
2022-12-25T21:38:58.334Z,13.70
2022-12-25T21:41:27.943Z,13.60
2022-12-25T21:43:57.960Z,13.60
2022-12-25T21:46:26.543Z,13.60
2022-12-25T21:48:55.092Z,13.50
2022-12-25T21:51:43.118Z,13.50
2022-12-25T21:54:12.099Z,13.60
2022-12-25T21:56:45.196Z,13.60
2022-12-25T21:59:17.972Z,13.30
2022-12-25T22:01:47.003Z,13.30
2022-12-25T22:04:16.957Z,13.40
2022-12-25T22:07:04.070Z,13.40
2022-12-25T22:09:32.797Z,13.40
2022-12-25T22:12:18.780Z,13.50
2022-12-25T22:14:58.201Z,13.30
2022-12-25T22:17:45.154Z,13.30
2022-12-25T22:20:15.649Z,13.30
2022-12-25T22:22:44.486Z,13.40
2022-12-25T22:25:13.585Z,13.30
2022-12-25T22:27:43.572Z,13.40
2022-12-25T22:30:15.794Z,13.40
2022-12-25T22:32:44.091Z,13.30
2022-12-25T22:35:13.252Z,13.30
2022-12-25T22:37:42.413Z,13.10
2022-12-25T22:40:12.687Z,13.10
2022-12-25T22:42:42.323Z,13.00
2022-12-25T22:45:13.570Z,12.90
2022-12-25T22:47:42.215Z,12.60
2022-12-25T22:50:12.012Z,12.70
2022-12-25T22:52:40.275Z,12.80
2022-12-25T22:55:10.629Z,13.00
2022-12-25T22:57:38.953Z,12.80
2022-12-25T23:00:09.344Z,12.70
2022-12-25T23:02:39.107Z,12.90
2022-12-25T23:05:08.242Z,13.10
2022-12-25T23:07:36.575Z,13.10
2022-12-25T23:10:05.572Z,13.20
2022-12-25T23:12:51.027Z,13.20
2022-12-25T23:15:19.330Z,13.30
2022-12-25T23:18:06.403Z,13.30
2022-12-25T23:20:51.723Z,13.20
2022-12-25T23:23:37.225Z,13.30
2022-12-25T23:26:11.611Z,13.20
2022-12-25T23:28:59.051Z,13.20
2022-12-25T23:31:30.045Z,13.20
2022-12-25T23:33:59.839Z,13.20
2022-12-25T23:36:28.691Z,13.10
2022-12-25T23:38:59.289Z,13.10
2022-12-25T23:41:31.380Z,13.10
2022-12-25T23:44:00.290Z,13.10
2022-12-25T23:46:28.694Z,13.10
2022-12-25T23:48:56.905Z,13.10
2022-12-25T23:51:26.671Z,13.10
2022-12-25T23:53:55.129Z,13.00
2022-12-25T23:56:23.780Z,13.00
2022-12-25T23:58:52.501Z,13.00
